sensor_id;sensor_type;location;lat;lon;timestamp;temperature;humidity
11934;DHT22;6026;48.784;9.198;2024-02-16T00:00:26;10.90;99.90
11934;DHT22;6026;48.784;9.198;2024-02-16T00:02:52;10.90;99.90
11934;DHT22;6026;48.784;9.198;2024-02-16T00:05:17;10.90;99.90
11934;DHT22;6026;48.784;9.198;2024-02-16T00:07:43;10.90;99.90
11934;DHT22;6026;48.784;9.198;2024-02-16T00:10:09;10.80;99.90
11934;DHT22;6026;48.784;9.198;2024-02-16T00:12:36;10.80;99.90
11934;DHT22;6026;48.784;9.198;2024-02-16T00:15:02;10.80;99.90
11934;DHT22;6026;48.784;9.198;2024-02-16T00:17:28;10.90;99.90
11934;DHT22;6026;48.784;9.198;2024-02-16T00:19:55;10.90;99.90
11934;DHT22;6026;48.784;9.198;2024-02-16T00:22:21;10.90;99.90
11934;DHT22;6026;48.784;9.198;2024-02-16T00:24:46;10.90;99.90
11934;DHT22;6026;48.784;9.198;2024-02-16T00:27:12;10.90;99.90
11934;DHT22;6026;48.784;9.198;2024-02-16T00:29:39;10.90;99.90
11934;DHT22;6026;48.784;9.198;2024-02-16T00:32:05;10.90;99.90
11934;DHT22;6026;48.784;9.198;2024-02-16T00:34:34;10.80;99.90
11934;DHT22;6026;48.784;9.198;2024-02-16T00:37:00;10.70;99.90
11934;DHT22;6026;48.784;9.198;2024-02-16T00:39:26;10.70;99.90
11934;DHT22;6026;48.784;9.198;2024-02-16T00:41:52;10.70;99.90
11934;DHT22;6026;48.784;9.198;2024-02-16T00:44:17;10.70;99.90
11934;DHT22;6026;48.784;9.198;2024-02-16T00:46:44;10.70;99.90
11934;DHT22;6026;48.784;9.198;2024-02-16T00:49:10;10.70;99.90
11934;DHT22;6026;48.784;9.198;2024-02-16T00:51:39;10.70;99.90
11934;DHT22;6026;48.784;9.198;2024-02-16T00:54:04;10.70;99.90
11934;DHT22;6026;48.784;9.198;2024-02-16T00:56:31;10.60;99.90
11934;DHT22;6026;48.784;9.198;2024-02-16T00:58:57;10.60;99.90
11934;DHT22;6026;48.784;9.198;2024-02-16T01:01:23;10.50;99.90
11934;DHT22;6026;48.784;9.198;2024-02-16T01:03:51;10.50;99.90
11934;DHT22;6026;48.784;9.198;2024-02-16T01:06:17;10.50;99.90
11934;DHT22;6026;48.784;9.198;2024-02-16T01:08:43;10.60;99.90
11934;DHT22;6026;48.784;9.198;2024-02-16T01:11:09;10.60;99.90
11934;DHT22;6026;48.784;9.198;2024-02-16T01:13:34;10.60;99.90
11934;DHT22;6026;48.784;9.198;2024-02-16T01:16:00;10.60;99.90
11934;DHT22;6026;48.784;9.198;2024-02-16T01:18:28;10.60;99.90
11934;DHT22;6026;48.784;9.198;2024-02-16T01:20:54;10.70;99.90
11934;DHT22;6026;48.784;9.198;2024-02-16T01:23:21;10.70;99.90
11934;DHT22;6026;48.784;9.198;2024-02-16T01:25:46;10.70;99.90
11934;DHT22;6026;48.784;9.198;2024-02-16T01:28:13;10.70;99.90
11934;DHT22;6026;48.784;9.198;2024-02-16T01:30:39;10.70;99.90
11934;DHT22;6026;48.784;9.198;2024-02-16T01:33:05;10.70;99.90
11934;DHT22;6026;48.784;9.198;2024-02-16T01:35:35;10.70;99.90
11934;DHT22;6026;48.784;9.198;2024-02-16T01:38:01;10.60;99.90
11934;DHT22;6026;48.784;9.198;2024-02-16T01:40:27;10.50;99.90
11934;DHT22;6026;48.784;9.198;2024-02-16T01:42:53;10.60;99.90
11934;DHT22;6026;48.784;9.198;2024-02-16T01:45:19;10.60;99.90
11934;DHT22;6026;48.784;9.198;2024-02-16T01:47:46;10.60;99.90
11934;DHT22;6026;48.784;9.198;2024-02-16T01:50:14;10.60;99.90
11934;DHT22;6026;48.784;9.198;2024-02-16T01:52:40;10.60;99.90
11934;DHT22;6026;48.784;9.198;2024-02-16T01:55:06;10.60;99.90
11934;DHT22;6026;48.784;9.198;2024-02-16T01:57:45;10.60;99.90
11934;DHT22;6026;48.784;9.198;2024-02-16T02:00:11;10.60;99.90
11934;DHT22;6026;48.784;9.198;2024-02-16T02:02:41;10.60;99.90
11934;DHT22;6026;48.784;9.198;2024-02-16T02:05:08;10.60;99.90
11934;DHT22;6026;48.784;9.198;2024-02-16T02:07:34;10.60;99.90
11934;DHT22;6026;48.784;9.198;2024-02-16T02:09:59;10.50;99.90
11934;DHT22;6026;48.784;9.198;2024-02-16T02:12:25;10.40;99.90
11934;DHT22;6026;48.784;9.198;2024-02-16T02:14:51;10.40;99.90
11934;DHT22;6026;48.784;9.198;2024-02-16T02:17:17;10.00;99.90
11934;DHT22;6026;48.784;9.198;2024-02-16T02:19:46;9.90;99.90
11934;DHT22;6026;48.784;9.198;2024-02-16T02:22:19;9.90;99.90
11934;DHT22;6026;48.784;9.198;2024-02-16T02:24:46;9.90;99.90
11934;DHT22;6026;48.784;9.198;2024-02-16T02:27:12;9.90;99.90
11934;DHT22;6026;48.784;9.198;2024-02-16T02:29:39;9.90;99.90
11934;DHT22;6026;48.784;9.198;2024-02-16T02:32:06;9.90;99.90
11934;DHT22;6026;48.784;9.198;2024-02-16T02:34:32;9.90;99.90
11934;DHT22;6026;48.784;9.198;2024-02-16T02:36:57;9.90;99.90
11934;DHT22;6026;48.784;9.198;2024-02-16T02:39:23;9.90;99.90
11934;DHT22;6026;48.784;9.198;2024-02-16T02:41:49;9.70;99.90
11934;DHT22;6026;48.784;9.198;2024-02-16T02:44:14;9.60;99.90
11934;DHT22;6026;48.784;9.198;2024-02-16T02:46:40;9.60;99.90
11934;DHT22;6026;48.784;9.198;2024-02-16T02:49:05;9.60;99.90
11934;DHT22;6026;48.784;9.198;2024-02-16T02:51:31;9.70;99.90
11934;DHT22;6026;48.784;9.198;2024-02-16T02:53:57;9.80;99.90
11934;DHT22;6026;48.784;9.198;2024-02-16T02:56:22;9.80;99.90
11934;DHT22;6026;48.784;9.198;2024-02-16T02:58:48;9.90;99.90
11934;DHT22;6026;48.784;9.198;2024-02-16T03:01:14;9.90;99.90
11934;DHT22;6026;48.784;9.198;2024-02-16T03:03:40;9.90;99.90
11934;DHT22;6026;48.784;9.198;2024-02-16T03:06:06;9.90;99.90
11934;DHT22;6026;48.784;9.198;2024-02-16T03:08:33;9.80;99.90
11934;DHT22;6026;48.784;9.198;2024-02-16T03:10:58;9.90;99.90
11934;DHT22;6026;48.784;9.198;2024-02-16T03:13:26;9.90;99.90
11934;DHT22;6026;48.784;9.198;2024-02-16T03:15:51;9.80;99.90
11934;DHT22;6026;48.784;9.198;2024-02-16T03:18:18;9.90;99.90
11934;DHT22;6026;48.784;9.198;2024-02-16T03:20:45;9.90;99.90
11934;DHT22;6026;48.784;9.198;2024-02-16T03:23:13;9.90;99.90
11934;DHT22;6026;48.784;9.198;2024-02-16T03:25:39;9.90;99.90
11934;DHT22;6026;48.784;9.198;2024-02-16T03:28:05;9.90;99.90
11934;DHT22;6026;48.784;9.198;2024-02-16T03:30:30;9.80;99.90
11934;DHT22;6026;48.784;9.198;2024-02-16T03:32:56;9.90;99.90
11934;DHT22;6026;48.784;9.198;2024-02-16T03:35:22;9.90;99.90
11934;DHT22;6026;48.784;9.198;2024-02-16T03:37:47;9.90;99.90
11934;DHT22;6026;48.784;9.198;2024-02-16T03:40:13;9.90;99.90
11934;DHT22;6026;48.784;9.198;2024-02-16T03:42:39;9.90;99.90
11934;DHT22;6026;48.784;9.198;2024-02-16T03:45:06;9.90;99.90
11934;DHT22;6026;48.784;9.198;2024-02-16T03:47:32;9.90;99.90
11934;DHT22;6026;48.784;9.198;2024-02-16T03:49:58;9.90;99.90
11934;DHT22;6026;48.784;9.198;2024-02-16T03:52:23;9.90;99.90
11934;DHT22;6026;48.784;9.198;2024-02-16T03:54:50;10.00;99.90
11934;DHT22;6026;48.784;9.198;2024-02-16T03:57:16;10.00;99.90
11934;DHT22;6026;48.784;9.198;2024-02-16T03:59:45;10.00;99.90
11934;DHT22;6026;48.784;9.198;2024-02-16T04:02:11;10.00;99.90
11934;DHT22;6026;48.784;9.198;2024-02-16T04:04:38;10.00;99.90
11934;DHT22;6026;48.784;9.198;2024-02-16T04:07:04;10.00;99.90
11934;DHT22;6026;48.784;9.198;2024-02-16T04:09:32;9.90;99.90
11934;DHT22;6026;48.784;9.198;2024-02-16T04:11:58;9.90;99.90
11934;DHT22;6026;48.784;9.198;2024-02-16T04:14:24;9.90;99.90
11934;DHT22;6026;48.784;9.198;2024-02-16T04:16:49;9.90;99.90
11934;DHT22;6026;48.784;9.198;2024-02-16T04:19:15;9.90;99.90
11934;DHT22;6026;48.784;9.198;2024-02-16T04:21:40;9.90;99.90
11934;DHT22;6026;48.784;9.198;2024-02-16T04:24:06;9.90;99.90
11934;DHT22;6026;48.784;9.198;2024-02-16T04:26:31;9.90;99.90
11934;DHT22;6026;48.784;9.198;2024-02-16T04:28:57;9.90;99.90
11934;DHT22;6026;48.784;9.198;2024-02-16T04:31:23;9.80;99.90
11934;DHT22;6026;48.784;9.198;2024-02-16T04:33:48;9.80;99.90
11934;DHT22;6026;48.784;9.198;2024-02-16T04:36:14;9.90;99.90
11934;DHT22;6026;48.784;9.198;2024-02-16T04:38:40;9.90;99.90
11934;DHT22;6026;48.784;9.198;2024-02-16T04:41:06;9.90;99.90
11934;DHT22;6026;48.784;9.198;2024-02-16T04:43:32;9.90;99.90
11934;DHT22;6026;48.784;9.198;2024-02-16T04:45:57;9.90;99.90
11934;DHT22;6026;48.784;9.198;2024-02-16T04:48:23;9.90;99.90
11934;DHT22;6026;48.784;9.198;2024-02-16T04:50:49;9.90;99.90
11934;DHT22;6026;48.784;9.198;2024-02-16T04:53:14;9.80;99.90
11934;DHT22;6026;48.784;9.198;2024-02-16T04:55:40;9.80;99.90
11934;DHT22;6026;48.784;9.198;2024-02-16T04:58:05;9.80;99.90
11934;DHT22;6026;48.784;9.198;2024-02-16T05:00:35;9.70;99.90
11934;DHT22;6026;48.784;9.198;2024-02-16T05:03:00;9.70;99.90
11934;DHT22;6026;48.784;9.198;2024-02-16T05:05:26;9.70;99.90
11934;DHT22;6026;48.784;9.198;2024-02-16T05:07:52;9.70;99.90
11934;DHT22;6026;48.784;9.198;2024-02-16T05:10:17;9.70;99.90
11934;DHT22;6026;48.784;9.198;2024-02-16T05:12:45;9.70;99.90
11934;DHT22;6026;48.784;9.198;2024-02-16T05:15:11;9.70;99.90
11934;DHT22;6026;48.784;9.198;2024-02-16T05:17:39;9.70;99.90
11934;DHT22;6026;48.784;9.198;2024-02-16T05:20:12;9.70;99.90
11934;DHT22;6026;48.784;9.198;2024-02-16T05:22:44;9.70;99.90
11934;DHT22;6026;48.784;9.198;2024-02-16T05:25:12;9.60;99.90
11934;DHT22;6026;48.784;9.198;2024-02-16T05:27:37;9.70;99.90
11934;DHT22;6026;48.784;9.198;2024-02-16T05:30:04;9.60;99.90
11934;DHT22;6026;48.784;9.198;2024-02-16T05:32:36;9.60;99.90
11934;DHT22;6026;48.784;9.198;2024-02-16T05:35:06;9.60;99.90
11934;DHT22;6026;48.784;9.198;2024-02-16T05:37:46;9.60;99.90
11934;DHT22;6026;48.784;9.198;2024-02-16T05:40:17;9.60;99.90
11934;DHT22;6026;48.784;9.198;2024-02-16T05:42:57;9.60;99.90
11934;DHT22;6026;48.784;9.198;2024-02-16T05:45:25;9.60;99.90
11934;DHT22;6026;48.784;9.198;2024-02-16T05:47:54;9.70;99.90
11934;DHT22;6026;48.784;9.198;2024-02-16T05:50:21;9.70;99.90
11934;DHT22;6026;48.784;9.198;2024-02-16T05:52:46;9.60;99.90
11934;DHT22;6026;48.784;9.198;2024-02-16T05:55:12;9.60;99.90
11934;DHT22;6026;48.784;9.198;2024-02-16T05:57:38;9.60;99.90
11934;DHT22;6026;48.784;9.198;2024-02-16T06:00:06;9.60;99.90
11934;DHT22;6026;48.784;9.198;2024-02-16T06:02:33;9.60;99.90
11934;DHT22;6026;48.784;9.198;2024-02-16T06:04:59;9.60;99.90
11934;DHT22;6026;48.784;9.198;2024-02-16T06:07:25;9.60;99.90
11934;DHT22;6026;48.784;9.198;2024-02-16T06:09:51;9.60;99.90
11934;DHT22;6026;48.784;9.198;2024-02-16T06:12:17;9.60;99.90
11934;DHT22;6026;48.784;9.198;2024-02-16T06:14:43;9.60;99.90
11934;DHT22;6026;48.784;9.198;2024-02-16T06:17:08;9.60;99.90
11934;DHT22;6026;48.784;9.198;2024-02-16T06:19:35;9.60;99.90
11934;DHT22;6026;48.784;9.198;2024-02-16T06:22:00;9.60;99.90
11934;DHT22;6026;48.784;9.198;2024-02-16T06:24:26;9.50;99.90
11934;DHT22;6026;48.784;9.198;2024-02-16T06:26:53;9.60;99.90
11934;DHT22;6026;48.784;9.198;2024-02-16T06:29:19;9.50;99.90
11934;DHT22;6026;48.784;9.198;2024-02-16T06:31:46;9.60;99.90
11934;DHT22;6026;48.784;9.198;2024-02-16T06:34:13;9.50;99.90
11934;DHT22;6026;48.784;9.198;2024-02-16T06:36:38;9.60;99.90
11934;DHT22;6026;48.784;9.198;2024-02-16T06:39:04;9.60;99.90
11934;DHT22;6026;48.784;9.198;2024-02-16T06:41:30;9.60;99.90
11934;DHT22;6026;48.784;9.198;2024-02-16T06:43:55;9.50;99.90
11934;DHT22;6026;48.784;9.198;2024-02-16T06:46:21;9.50;99.90
11934;DHT22;6026;48.784;9.198;2024-02-16T06:48:47;9.50;99.90
11934;DHT22;6026;48.784;9.198;2024-02-16T06:51:13;9.50;99.90
11934;DHT22;6026;48.784;9.198;2024-02-16T06:53:39;9.50;99.90
11934;DHT22;6026;48.784;9.198;2024-02-16T06:56:05;9.50;99.90
11934;DHT22;6026;48.784;9.198;2024-02-16T06:58:30;9.60;99.90
11934;DHT22;6026;48.784;9.198;2024-02-16T07:00:56;9.60;99.90
11934;DHT22;6026;48.784;9.198;2024-02-16T07:03:23;9.70;99.90
11934;DHT22;6026;48.784;9.198;2024-02-16T07:05:49;9.80;99.90
11934;DHT22;6026;48.784;9.198;2024-02-16T07:08:14;9.80;99.90
11934;DHT22;6026;48.784;9.198;2024-02-16T07:10:40;10.00;99.90
11934;DHT22;6026;48.784;9.198;2024-02-16T07:13:06;9.90;99.90
11934;DHT22;6026;48.784;9.198;2024-02-16T07:15:31;10.00;99.90
11934;DHT22;6026;48.784;9.198;2024-02-16T07:17:57;10.00;99.90
11934;DHT22;6026;48.784;9.198;2024-02-16T07:20:23;10.00;99.90
11934;DHT22;6026;48.784;9.198;2024-02-16T07:22:49;10.10;99.90
11934;DHT22;6026;48.784;9.198;2024-02-16T07:25:17;10.20;99.90
11934;DHT22;6026;48.784;9.198;2024-02-16T07:27:43;10.20;99.90
11934;DHT22;6026;48.784;9.198;2024-02-16T07:30:09;10.30;99.90
11934;DHT22;6026;48.784;9.198;2024-02-16T07:32:36;10.30;99.90
11934;DHT22;6026;48.784;9.198;2024-02-16T07:35:02;10.40;99.90
11934;DHT22;6026;48.784;9.198;2024-02-16T07:37:28;10.40;99.90
11934;DHT22;6026;48.784;9.198;2024-02-16T07:39:54;10.40;99.90
11934;DHT22;6026;48.784;9.198;2024-02-16T07:42:19;10.40;99.90
11934;DHT22;6026;48.784;9.198;2024-02-16T07:44:46;10.40;99.90
11934;DHT22;6026;48.784;9.198;2024-02-16T07:47:11;10.20;99.90
11934;DHT22;6026;48.784;9.198;2024-02-16T07:49:38;10.30;99.90
11934;DHT22;6026;48.784;9.198;2024-02-16T07:52:05;10.30;99.90
11934;DHT22;6026;48.784;9.198;2024-02-16T07:54:31;10.30;99.90
11934;DHT22;6026;48.784;9.198;2024-02-16T07:56:56;10.30;99.90
11934;DHT22;6026;48.784;9.198;2024-02-16T07:59:25;10.40;99.90
11934;DHT22;6026;48.784;9.198;2024-02-16T08:01:50;10.30;99.90
11934;DHT22;6026;48.784;9.198;2024-02-16T08:04:16;10.30;99.90
11934;DHT22;6026;48.784;9.198;2024-02-16T08:06:42;10.40;99.90
11934;DHT22;6026;48.784;9.198;2024-02-16T08:09:07;10.50;99.90
11934;DHT22;6026;48.784;9.198;2024-02-16T08:11:33;10.90;99.90
11934;DHT22;6026;48.784;9.198;2024-02-16T08:13:58;11.50;99.90
11934;DHT22;6026;48.784;9.198;2024-02-16T08:16:26;12.20;99.90
11934;DHT22;6026;48.784;9.198;2024-02-16T08:18:53;12.90;99.90
11934;DHT22;6026;48.784;9.198;2024-02-16T08:21:18;13.60;99.90
11934;DHT22;6026;48.784;9.198;2024-02-16T08:23:44;14.20;99.90
11934;DHT22;6026;48.784;9.198;2024-02-16T08:26:09;14.90;99.90
11934;DHT22;6026;48.784;9.198;2024-02-16T08:28:35;15.60;99.90
11934;DHT22;6026;48.784;9.198;2024-02-16T08:31:00;16.30;99.90
11934;DHT22;6026;48.784;9.198;2024-02-16T08:33:26;17.00;99.90
11934;DHT22;6026;48.784;9.198;2024-02-16T08:35:51;17.70;99.90
11934;DHT22;6026;48.784;9.198;2024-02-16T08:38:17;18.30;99.90
11934;DHT22;6026;48.784;9.198;2024-02-16T08:40:43;19.00;99.90
11934;DHT22;6026;48.784;9.198;2024-02-16T08:43:09;19.80;99.90
11934;DHT22;6026;48.784;9.198;2024-02-16T08:45:34;20.10;99.90
11934;DHT22;6026;48.784;9.198;2024-02-16T08:48:00;20.70;99.90
11934;DHT22;6026;48.784;9.198;2024-02-16T08:50:27;21.10;99.90
11934;DHT22;6026;48.784;9.198;2024-02-16T08:52:53;21.50;99.90
11934;DHT22;6026;48.784;9.198;2024-02-16T08:55:19;21.80;99.90
11934;DHT22;6026;48.784;9.198;2024-02-16T08:57:45;21.90;99.90
11934;DHT22;6026;48.784;9.198;2024-02-16T09:00:11;22.00;99.90
11934;DHT22;6026;48.784;9.198;2024-02-16T09:02:37;22.10;99.90
11934;DHT22;6026;48.784;9.198;2024-02-16T09:05:04;22.10;99.90
11934;DHT22;6026;48.784;9.198;2024-02-16T09:07:30;22.10;99.90
11934;DHT22;6026;48.784;9.198;2024-02-16T09:09:55;22.00;99.90
11934;DHT22;6026;48.784;9.198;2024-02-16T09:12:22;21.90;99.90
11934;DHT22;6026;48.784;9.198;2024-02-16T09:14:47;21.70;99.90
11934;DHT22;6026;48.784;9.198;2024-02-16T09:17:13;21.50;99.90
11934;DHT22;6026;48.784;9.198;2024-02-16T09:19:39;21.40;99.90
11934;DHT22;6026;48.784;9.198;2024-02-16T09:22:04;21.40;99.90
11934;DHT22;6026;48.784;9.198;2024-02-16T09:24:32;21.40;99.90
11934;DHT22;6026;48.784;9.198;2024-02-16T09:26:58;21.50;99.90
11934;DHT22;6026;48.784;9.198;2024-02-16T09:29:29;21.50;99.90
11934;DHT22;6026;48.784;9.198;2024-02-16T09:31:55;21.20;99.90
11934;DHT22;6026;48.784;9.198;2024-02-16T09:34:21;21.00;99.90
11934;DHT22;6026;48.784;9.198;2024-02-16T09:36:46;20.70;99.90
11934;DHT22;6026;48.784;9.198;2024-02-16T09:39:12;20.40;99.90
11934;DHT22;6026;48.784;9.198;2024-02-16T09:41:41;20.10;99.90
11934;DHT22;6026;48.784;9.198;2024-02-16T09:44:07;19.90;99.90
11934;DHT22;6026;48.784;9.198;2024-02-16T09:46:33;20.10;99.90
11934;DHT22;6026;48.784;9.198;2024-02-16T09:49:02;20.10;99.90
11934;DHT22;6026;48.784;9.198;2024-02-16T09:51:29;20.30;99.90
11934;DHT22;6026;48.784;9.198;2024-02-16T09:53:55;20.40;99.90
11934;DHT22;6026;48.784;9.198;2024-02-16T09:56:21;20.60;99.90
11934;DHT22;6026;48.784;9.198;2024-02-16T09:58:46;20.60;99.90
11934;DHT22;6026;48.784;9.198;2024-02-16T10:01:18;20.60;99.90
11934;DHT22;6026;48.784;9.198;2024-02-16T10:03:45;20.60;99.90
11934;DHT22;6026;48.784;9.198;2024-02-16T10:06:10;20.90;99.90
11934;DHT22;6026;48.784;9.198;2024-02-16T10:08:56;21.30;99.90
11934;DHT22;6026;48.784;9.198;2024-02-16T10:11:26;21.40;99.90
11934;DHT22;6026;48.784;9.198;2024-02-16T10:14:00;21.50;99.90
11934;DHT22;6026;48.784;9.198;2024-02-16T10:16:27;21.50;99.90
11934;DHT22;6026;48.784;9.198;2024-02-16T10:19:06;21.30;99.90
11934;DHT22;6026;48.784;9.198;2024-02-16T10:21:32;21.10;99.90
11934;DHT22;6026;48.784;9.198;2024-02-16T10:24:06;20.90;99.90
11934;DHT22;6026;48.784;9.198;2024-02-16T10:26:35;20.60;99.90
11934;DHT22;6026;48.784;9.198;2024-02-16T10:29:05;20.50;99.90
11934;DHT22;6026;48.784;9.198;2024-02-16T10:31:32;20.30;99.90
11934;DHT22;6026;48.784;9.198;2024-02-16T10:34:03;20.20;99.90
11934;DHT22;6026;48.784;9.198;2024-02-16T10:36:32;19.80;99.90
11934;DHT22;6026;48.784;9.198;2024-02-16T10:38:59;19.60;99.90
11934;DHT22;6026;48.784;9.198;2024-02-16T10:41:28;19.60;99.90
11934;DHT22;6026;48.784;9.198;2024-02-16T10:43:55;19.70;99.90
11934;DHT22;6026;48.784;9.198;2024-02-16T10:46:22;19.40;99.90
11934;DHT22;6026;48.784;9.198;2024-02-16T10:48:48;18.60;99.90
11934;DHT22;6026;48.784;9.198;2024-02-16T10:51:16;18.10;99.90
11934;DHT22;6026;48.784;9.198;2024-02-16T10:53:45;18.10;99.90
11934;DHT22;6026;48.784;9.198;2024-02-16T10:56:13;17.90;99.90
11934;DHT22;6026;48.784;9.198;2024-02-16T10:58:39;17.80;99.90
11934;DHT22;6026;48.784;9.198;2024-02-16T11:01:09;18.00;99.90
11934;DHT22;6026;48.784;9.198;2024-02-16T11:03:39;18.10;99.90
11934;DHT22;6026;48.784;9.198;2024-02-16T11:06:15;18.20;99.90
11934;DHT22;6026;48.784;9.198;2024-02-16T11:08:44;18.20;99.90
11934;DHT22;6026;48.784;9.198;2024-02-16T11:11:09;18.40;99.90
11934;DHT22;6026;48.784;9.198;2024-02-16T11:13:38;18.40;99.90
11934;DHT22;6026;48.784;9.198;2024-02-16T11:16:09;18.50;99.90
11934;DHT22;6026;48.784;9.198;2024-02-16T11:18:40;18.50;99.90
11934;DHT22;6026;48.784;9.198;2024-02-16T11:21:06;18.50;99.90
11934;DHT22;6026;48.784;9.198;2024-02-16T11:23:35;18.40;99.90
11934;DHT22;6026;48.784;9.198;2024-02-16T11:26:06;18.40;99.90
11934;DHT22;6026;48.784;9.198;2024-02-16T11:28:36;18.40;99.90
11934;DHT22;6026;48.784;9.198;2024-02-16T11:31:03;18.40;99.90
11934;DHT22;6026;48.784;9.198;2024-02-16T11:33:29;18.40;99.90
11934;DHT22;6026;48.784;9.198;2024-02-16T11:35:56;18.40;99.90
11934;DHT22;6026;48.784;9.198;2024-02-16T11:38:23;18.40;99.90
11934;DHT22;6026;48.784;9.198;2024-02-16T11:41:03;18.40;99.90
11934;DHT22;6026;48.784;9.198;2024-02-16T11:43:30;18.40;99.90
11934;DHT22;6026;48.784;9.198;2024-02-16T11:45:55;18.30;99.90
11934;DHT22;6026;48.784;9.198;2024-02-16T11:48:23;18.40;99.90
11934;DHT22;6026;48.784;9.198;2024-02-16T11:50:49;18.50;99.90
11934;DHT22;6026;48.784;9.198;2024-02-16T11:53:18;18.50;99.90
11934;DHT22;6026;48.784;9.198;2024-02-16T11:55:48;18.60;99.90
11934;DHT22;6026;48.784;9.198;2024-02-16T11:58:18;18.70;99.90
11934;DHT22;6026;48.784;9.198;2024-02-16T12:00:48;18.80;99.90
11934;DHT22;6026;48.784;9.198;2024-02-16T12:03:20;19.00;99.90
11934;DHT22;6026;48.784;9.198;2024-02-16T12:05:56;19.20;99.90
11934;DHT22;6026;48.784;9.198;2024-02-16T12:08:22;19.50;99.90
11934;DHT22;6026;48.784;9.198;2024-02-16T12:10:49;19.70;99.90
11934;DHT22;6026;48.784;9.198;2024-02-16T12:13:19;19.90;99.90
11934;DHT22;6026;48.784;9.198;2024-02-16T12:15:48;20.10;99.90
11934;DHT22;6026;48.784;9.198;2024-02-16T12:18:21;20.20;99.90
11934;DHT22;6026;48.784;9.198;2024-02-16T12:20:58;20.30;99.90
11934;DHT22;6026;48.784;9.198;2024-02-16T12:23:24;20.40;99.90
11934;DHT22;6026;48.784;9.198;2024-02-16T12:25:50;20.40;99.90
11934;DHT22;6026;48.784;9.198;2024-02-16T12:28:15;20.40;99.90
11934;DHT22;6026;48.784;9.198;2024-02-16T12:30:41;20.50;99.90
11934;DHT22;6026;48.784;9.198;2024-02-16T12:33:06;20.50;99.90
11934;DHT22;6026;48.784;9.198;2024-02-16T12:35:32;20.50;99.90
11934;DHT22;6026;48.784;9.198;2024-02-16T12:37:57;20.60;99.90
11934;DHT22;6026;48.784;9.198;2024-02-16T12:40:23;20.70;99.90
11934;DHT22;6026;48.784;9.198;2024-02-16T12:42:48;20.60;99.90
11934;DHT22;6026;48.784;9.198;2024-02-16T12:45:14;20.60;99.90
11934;DHT22;6026;48.784;9.198;2024-02-16T12:47:41;20.50;99.90
11934;DHT22;6026;48.784;9.198;2024-02-16T12:50:07;20.40;99.90
11934;DHT22;6026;48.784;9.198;2024-02-16T12:52:33;20.40;99.90
11934;DHT22;6026;48.784;9.198;2024-02-16T12:55:00;20.30;99.90
11934;DHT22;6026;48.784;9.198;2024-02-16T12:57:26;20.20;99.90
11934;DHT22;6026;48.784;9.198;2024-02-16T12:59:53;20.10;99.90
11934;DHT22;6026;48.784;9.198;2024-02-16T13:02:19;20.00;99.90
11934;DHT22;6026;48.784;9.198;2024-02-16T13:04:45;19.80;99.90
11934;DHT22;6026;48.784;9.198;2024-02-16T13:07:10;19.70;99.90
11934;DHT22;6026;48.784;9.198;2024-02-16T13:09:36;19.60;99.90
11934;DHT22;6026;48.784;9.198;2024-02-16T13:12:02;19.50;99.90
11934;DHT22;6026;48.784;9.198;2024-02-16T13:14:28;19.40;99.90
11934;DHT22;6026;48.784;9.198;2024-02-16T13:16:53;19.30;99.90
11934;DHT22;6026;48.784;9.198;2024-02-16T13:19:19;19.30;99.90
11934;DHT22;6026;48.784;9.198;2024-02-16T13:21:45;19.20;99.90
11934;DHT22;6026;48.784;9.198;2024-02-16T13:24:10;19.10;99.90
11934;DHT22;6026;48.784;9.198;2024-02-16T13:26:36;19.10;99.90
11934;DHT22;6026;48.784;9.198;2024-02-16T13:29:01;19.00;99.90
11934;DHT22;6026;48.784;9.198;2024-02-16T13:31:27;18.90;99.90
11934;DHT22;6026;48.784;9.198;2024-02-16T13:33:53;19.00;99.90
11934;DHT22;6026;48.784;9.198;2024-02-16T13:36:19;18.80;99.90
11934;DHT22;6026;48.784;9.198;2024-02-16T13:38:45;18.80;99.90
11934;DHT22;6026;48.784;9.198;2024-02-16T13:41:10;18.80;99.90
11934;DHT22;6026;48.784;9.198;2024-02-16T13:43:36;18.70;99.90
11934;DHT22;6026;48.784;9.198;2024-02-16T13:46:02;18.70;99.90
11934;DHT22;6026;48.784;9.198;2024-02-16T13:48:27;18.60;99.90
11934;DHT22;6026;48.784;9.198;2024-02-16T13:50:55;18.50;99.90
11934;DHT22;6026;48.784;9.198;2024-02-16T13:53:21;18.50;99.90
11934;DHT22;6026;48.784;9.198;2024-02-16T13:55:48;18.50;99.90
11934;DHT22;6026;48.784;9.198;2024-02-16T13:58:14;18.50;99.90
11934;DHT22;6026;48.784;9.198;2024-02-16T14:00:40;18.50;99.90
11934;DHT22;6026;48.784;9.198;2024-02-16T14:03:10;18.50;99.90
11934;DHT22;6026;48.784;9.198;2024-02-16T14:05:37;18.50;99.90
11934;DHT22;6026;48.784;9.198;2024-02-16T14:08:04;18.40;99.90
11934;DHT22;6026;48.784;9.198;2024-02-16T14:10:30;18.40;99.90
11934;DHT22;6026;48.784;9.198;2024-02-16T14:12:57;18.30;99.90
11934;DHT22;6026;48.784;9.198;2024-02-16T14:15:23;18.30;99.90
11934;DHT22;6026;48.784;9.198;2024-02-16T14:17:49;18.20;99.90
11934;DHT22;6026;48.784;9.198;2024-02-16T14:20:14;18.10;99.90
11934;DHT22;6026;48.784;9.198;2024-02-16T14:22:40;17.90;99.90
11934;DHT22;6026;48.784;9.198;2024-02-16T14:25:05;17.70;99.90
11934;DHT22;6026;48.784;9.198;2024-02-16T14:27:31;17.60;99.90
11934;DHT22;6026;48.784;9.198;2024-02-16T14:29:58;17.70;99.90
11934;DHT22;6026;48.784;9.198;2024-02-16T14:32:23;17.70;99.90
11934;DHT22;6026;48.784;9.198;2024-02-16T14:34:49;17.70;99.90
11934;DHT22;6026;48.784;9.198;2024-02-16T14:37:14;17.70;99.90
11934;DHT22;6026;48.784;9.198;2024-02-16T14:39:40;17.70;99.90
11934;DHT22;6026;48.784;9.198;2024-02-16T14:42:06;17.70;99.90
11934;DHT22;6026;48.784;9.198;2024-02-16T14:44:31;17.70;99.90
11934;DHT22;6026;48.784;9.198;2024-02-16T14:46:57;17.70;99.90
11934;DHT22;6026;48.784;9.198;2024-02-16T14:49:22;17.60;99.90
11934;DHT22;6026;48.784;9.198;2024-02-16T14:51:50;17.60;99.90
11934;DHT22;6026;48.784;9.198;2024-02-16T14:54:18;17.50;99.90
11934;DHT22;6026;48.784;9.198;2024-02-16T14:56:44;17.50;99.90
11934;DHT22;6026;48.784;9.198;2024-02-16T14:59:09;17.40;99.90
11934;DHT22;6026;48.784;9.198;2024-02-16T15:01:36;17.40;99.90
11934;DHT22;6026;48.784;9.198;2024-02-16T15:04:03;17.30;99.90
11934;DHT22;6026;48.784;9.198;2024-02-16T15:06:29;17.30;99.90
11934;DHT22;6026;48.784;9.198;2024-02-16T15:08:58;17.20;99.90
11934;DHT22;6026;48.784;9.198;2024-02-16T15:11:24;17.20;99.90
11934;DHT22;6026;48.784;9.198;2024-02-16T15:13:50;17.00;99.90
11934;DHT22;6026;48.784;9.198;2024-02-16T15:16:15;17.00;99.90
11934;DHT22;6026;48.784;9.198;2024-02-16T15:18:41;17.00;99.90
11934;DHT22;6026;48.784;9.198;2024-02-16T15:21:07;16.90;99.90
11934;DHT22;6026;48.784;9.198;2024-02-16T15:23:32;16.90;99.90
11934;DHT22;6026;48.784;9.198;2024-02-16T15:25:58;16.90;99.90
11934;DHT22;6026;48.784;9.198;2024-02-16T15:28:25;16.90;99.90
11934;DHT22;6026;48.784;9.198;2024-02-16T15:30:50;16.90;99.90
11934;DHT22;6026;48.784;9.198;2024-02-16T15:33:16;16.90;99.90
11934;DHT22;6026;48.784;9.198;2024-02-16T15:35:42;16.90;99.90
11934;DHT22;6026;48.784;9.198;2024-02-16T15:38:07;16.80;99.90
11934;DHT22;6026;48.784;9.198;2024-02-16T15:40:33;16.80;99.90
11934;DHT22;6026;48.784;9.198;2024-02-16T15:43:05;16.80;99.90
11934;DHT22;6026;48.784;9.198;2024-02-16T15:45:36;16.90;99.90